Time;durP1;ratioP1;P1;durP2;ratioP2;P2;SDS_P1;SDS_P2;PMS_P1;PMS_P2;Temp;Humidity;BMP_temperature;BMP_pressure;BME280_temperature;BME280_humidity;BME280_pressure;Samples;Min_cycle;Max_cycle;Signal;HPM_P1;HPM_P2
2021/09/19 00:00:56;;;;;;;16.90;12.38;;;;;;;;;;4994792;28;20042;-49
2021/09/19 00:03:23;;;;;;;16.60;13.15;;;;;;;;;;5005447;28;20073;-50
2021/09/19 00:05:50;;;;;;;16.15;12.93;;;;;;;;;;5014413;28;20088;-47
2021/09/19 00:08:17;;;;;;;13.27;11.43;;;;;;;;;;5010174;28;20046;-49
2021/09/19 00:10:44;;;;;;;16.73;12.85;;;;;;;;;;5013979;28;20076;-47
2021/09/19 00:13:12;;;;;;;16.77;13.25;;;;;;;;;;5013734;28;20404;-49
2021/09/19 00:15:38;;;;;;;15.77;13.20;;;;;;;;;;5012517;28;20052;-49
2021/09/19 00:18:05;;;;;;;16.70;13.10;;;;;;;;;;5002519;28;20049;-49
2021/09/19 00:20:32;;;;;;;18.10;13.23;;;;;;;;;;5012545;28;20042;-48
2021/09/19 00:22:59;;;;;;;15.40;12.88;;;;;;;;;;5012059;28;20041;-50
2021/09/19 00:25:26;;;;;;;15.52;12.70;;;;;;;;;;4998538;28;20077;-50
2021/09/19 00:27:53;;;;;;;16.67;12.90;;;;;;;;;;5000512;28;20042;-51
2021/09/19 00:30:20;;;;;;;15.45;13.38;;;;;;;;;;4994871;28;20413;-52
2021/09/19 00:32:46;;;;;;;19.75;14.52;;;;;;;;;;5006048;28;20129;-52
2021/09/19 00:35:13;;;;;;;18.17;13.98;;;;;;;;;;5013304;28;20042;-49
2021/09/19 00:37:40;;;;;;;17.20;14.23;;;;;;;;;;5010896;28;20092;-52
2021/09/19 00:40:07;;;;;;;15.10;12.38;;;;;;;;;;5027429;28;20069;-49
2021/09/19 00:42:35;;;;;;;16.35;13.48;;;;;;;;;;5017939;28;20050;-53
2021/09/19 00:45:05;;;;;;;17.88;14.15;;;;;;;;;;5010963;28;20045;-50
2021/09/19 00:47:32;;;;;;;18.50;14.50;;;;;;;;;;5004834;28;20046;-52
2021/09/19 00:49:59;;;;;;;18.63;14.20;;;;;;;;;;5011190;28;20062;-50
2021/09/19 00:52:27;;;;;;;19.65;14.10;;;;;;;;;;5013106;28;20114;-53
2021/09/19 00:54:57;;;;;;;18.83;14.48;;;;;;;;;;5012243;28;20033;-49
2021/09/19 00:57:25;;;;;;;18.98;14.60;;;;;;;;;;5006057;28;20152;-50
2021/09/19 00:59:52;;;;;;;19.10;15.25;;;;;;;;;;5012199;28;20129;-53
2021/09/19 01:02:20;;;;;;;18.50;15.45;;;;;;;;;;5013215;28;20525;-50
2021/09/19 01:04:47;;;;;;;20.20;15.38;;;;;;;;;;5013010;28;20053;-54
2021/09/19 01:07:15;;;;;;;20.15;15.50;;;;;;;;;;5009974;28;20133;-53
2021/09/19 01:09:42;;;;;;;20.40;15.95;;;;;;;;;;4995769;28;20080;-52
2021/09/19 01:12:09;;;;;;;20.60;16.05;;;;;;;;;;5012709;28;20161;-53
2021/09/19 01:14:37;;;;;;;20.45;16.40;;;;;;;;;;5012442;28;20112;-49
2021/09/19 01:17:05;;;;;;;24.90;17.52;;;;;;;;;;5000540;28;20041;-49
2021/09/19 01:19:34;;;;;;;25.17;18.08;;;;;;;;;;5003346;28;20430;-51
2021/09/19 01:22:02;;;;;;;23.20;17.52;;;;;;;;;;5011657;28;20100;-53
2021/09/19 01:24:29;;;;;;;25.13;20.60;;;;;;;;;;5030736;23;20518;-39
2021/09/19 01:26:56;;;;;;;24.73;18.63;;;;;;;;;;5010338;28;20155;-41
2021/09/19 01:29:23;;;;;;;23.40;18.27;;;;;;;;;;5006994;28;20088;-42
2021/09/19 01:31:50;;;;;;;22.50;18.25;;;;;;;;;;5011606;28;20128;-43
2021/09/19 01:34:17;;;;;;;22.25;17.63;;;;;;;;;;5010544;28;20041;-43
2021/09/19 01:36:43;;;;;;;28.95;19.23;;;;;;;;;;5010368;28;20066;-41
2021/09/19 01:39:10;;;;;;;24.10;19.13;;;;;;;;;;5002030;28;20245;-41
2021/09/19 01:41:37;;;;;;;23.67;18.23;;;;;;;;;;5010703;28;20491;-45
2021/09/19 01:44:05;;;;;;;27.15;19.65;;;;;;;;;;5010348;28;20046;-41
2021/09/19 01:46:32;;;;;;;29.77;21.95;;;;;;;;;;5002932;28;20066;-41
2021/09/19 01:48:59;;;;;;;28.02;20.83;;;;;;;;;;5009959;28;20045;-41
2021/09/19 01:51:26;;;;;;;25.98;18.95;;;;;;;;;;5011259;28;20120;-41
2021/09/19 01:53:52;;;;;;;27.58;20.83;;;;;;;;;;5010978;28;20114;-42
2021/09/19 01:56:20;;;;;;;27.83;21.13;;;;;;;;;;4998622;28;20069;-44
2021/09/19 01:58:49;;;;;;;29.35;21.50;;;;;;;;;;5008363;28;20138;-41
2021/09/19 02:01:16;;;;;;;27.05;19.70;;;;;;;;;;5010711;28;20065;-40
2021/09/19 02:03:43;;;;;;;29.10;19.88;;;;;;;;;;5010118;28;20057;-43
2021/09/19 02:06:10;;;;;;;26.52;20.13;;;;;;;;;;5009206;28;20117;-44
2021/09/19 02:08:37;;;;;;;27.25;21.38;;;;;;;;;;4993301;28;20122;-44
2021/09/19 02:11:08;;;;;;;32.15;22.17;;;;;;;;;;5011176;28;20038;-45
2021/09/19 02:13:35;;;;;;;31.52;22.23;;;;;;;;;;5010078;28;20477;-41
2021/09/19 02:16:03;;;;;;;31.70;23.70;;;;;;;;;;4992197;28;20042;-41
2021/09/19 02:18:30;;;;;;;31.58;22.88;;;;;;;;;;5010637;28;20038;-42
2021/09/19 02:20:56;;;;;;;30.80;22.25;;;;;;;;;;5010832;28;20120;-43
2021/09/19 02:23:23;;;;;;;28.70;21.80;;;;;;;;;;5006497;28;20107;-42
2021/09/19 02:25:50;;;;;;;28.63;20.40;;;;;;;;;;4991243;28;20129;-41
2021/09/19 02:28:17;;;;;;;30.95;20.95;;;;;;;;;;5008265;28;20070;-42
2021/09/19 02:30:45;;;;;;;27.13;20.92;;;;;;;;;;5010176;28;20204;-44
2021/09/19 02:33:12;;;;;;;25.67;20.00;;;;;;;;;;5009200;28;20058;-42
2021/09/19 02:35:39;;;;;;;26.25;19.90;;;;;;;;;;5010825;28;20412;-46
2021/09/19 02:38:06;;;;;;;29.58;21.92;;;;;;;;;;5008563;28;20050;-42
2021/09/19 02:40:33;;;;;;;30.73;21.33;;;;;;;;;;5005945;28;20038;-43
2021/09/19 02:43:00;;;;;;;28.35;20.67;;;;;;;;;;5010425;28;20500;-43
2021/09/19 02:45:27;;;;;;;27.27;20.25;;;;;;;;;;5010357;28;20085;-45
2021/09/19 02:47:54;;;;;;;27.25;20.98;;;;;;;;;;5008402;28;20136;-42
2021/09/19 02:50:22;;;;;;;25.85;20.88;;;;;;;;;;5004385;28;20045;-42
2021/09/19 02:52:50;;;;;;;27.60;20.52;;;;;;;;;;5010061;28;20667;-41
2021/09/19 02:55:17;;;;;;;24.20;18.65;;;;;;;;;;5012921;28;20127;-41
2021/09/19 02:57:44;;;;;;;26.02;20.30;;;;;;;;;;5008139;28;20089;-42
2021/09/19 03:00:13;;;;;;;25.95;20.73;;;;;;;;;;5012299;28;20095;-42
2021/09/19 03:02:39;;;;;;;25.35;20.10;;;;;;;;;;5014268;28;20121;-41
2021/09/19 03:05:08;;;;;;;24.23;18.88;;;;;;;;;;5013467;28;20415;-41
2021/09/19 03:07:34;;;;;;;24.20;19.25;;;;;;;;;;5008914;28;20077;-42
2021/09/19 03:10:03;;;;;;;24.00;18.73;;;;;;;;;;5013936;28;20045;-42
2021/09/19 03:12:30;;;;;;;26.55;20.13;;;;;;;;;;5012678;28;20487;-43
2021/09/19 03:14:56;;;;;;;25.88;18.33;;;;;;;;;;5012131;28;20081;-41
2021/09/19 03:17:23;;;;;;;28.33;18.70;;;;;;;;;;4995491;28;20133;-44
2021/09/19 03:19:50;;;;;;;23.40;18.30;;;;;;;;;;5013986;28;20050;-42
2021/09/19 03:22:17;;;;;;;20.17;17.10;;;;;;;;;;5013910;28;20494;-43
2021/09/19 03:24:43;;;;;;;21.38;16.80;;;;;;;;;;4997595;28;20068;-41
2021/09/19 03:27:10;;;;;;;23.30;17.65;;;;;;;;;;5014972;28;20133;-43
2021/09/19 03:29:37;;;;;;;22.65;18.25;;;;;;;;;;5009973;28;20065;-42
2021/09/19 03:32:04;;;;;;;24.08;19.15;;;;;;;;;;5014040;28;20069;-44
2021/09/19 03:34:33;;;;;;;24.90;19.08;;;;;;;;;;5012552;28;20034;-43
2021/09/19 03:37:01;;;;;;;24.52;18.77;;;;;;;;;;5001189;28;20074;-46
2021/09/19 03:39:28;;;;;;;23.88;18.13;;;;;;;;;;5005425;28;20112;-43
2021/09/19 03:41:54;;;;;;;24.50;19.27;;;;;;;;;;5014702;28;20133;-43
2021/09/19 03:44:21;;;;;;;27.00;19.23;;;;;;;;;;5013175;28;20065;-40
2021/09/19 03:46:48;;;;;;;26.48;19.33;;;;;;;;;;4995591;28;20079;-41
2021/09/19 03:49:15;;;;;;;26.30;20.52;;;;;;;;;;5013592;28;20046;-41
2021/09/19 03:51:41;;;;;;;25.23;18.70;;;;;;;;;;5012874;28;20204;-46
2021/09/19 03:54:08;;;;;;;23.25;18.77;;;;;;;;;;5011297;28;20470;-43
2021/09/19 03:56:35;;;;;;;24.83;19.30;;;;;;;;;;5002137;28;20066;-47
2021/09/19 03:59:02;;;;;;;24.35;18.25;;;;;;;;;;5001591;28;20128;-45
2021/09/19 04:01:28;;;;;;;27.63;20.35;;;;;;;;;;5013002;28;20044;-45
2021/09/19 04:03:56;;;;;;;23.15;18.23;;;;;;;;;;5012753;28;20037;-42
2021/09/19 04:06:22;;;;;;;25.15;19.70;;;;;;;;;;5010100;28;20121;-47
2021/09/19 04:08:49;;;;;;;23.98;19.20;;;;;;;;;;5010855;28;20042;-49
2021/09/19 04:11:16;;;;;;;25.20;19.92;;;;;;;;;;5013187;28;20065;-45
2021/09/19 04:13:43;;;;;;;26.67;20.38;;;;;;;;;;5012638;28;20042;-43
2021/09/19 04:16:09;;;;;;;28.95;21.17;;;;;;;;;;5008679;28;20138;-41
2021/09/19 04:18:36;;;;;;;30.40;21.90;;;;;;;;;;5012957;28;20038;-40
2021/09/19 04:21:03;;;;;;;30.95;22.75;;;;;;;;;;5012696;28;20068;-42
2021/09/19 04:23:30;;;;;;;30.17;22.13;;;;;;;;;;5008185;28;20100;-43
2021/09/19 04:25:57;;;;;;;30.55;22.73;;;;;;;;;;5012544;28;20499;-40
2021/09/19 04:28:23;;;;;;;28.42;21.13;;;;;;;;;;5009467;28;20073;-44
2021/09/19 04:30:50;;;;;;;26.88;19.63;;;;;;;;;;4999722;28;20068;-44
2021/09/19 04:33:17;;;;;;;25.83;19.95;;;;;;;;;;5011783;28;20140;-40
2021/09/19 04:35:44;;;;;;;26.13;19.83;;;;;;;;;;5012025;28;20096;-40
2021/09/19 04:38:13;;;;;;;34.35;21.60;;;;;;;;;;5012022;28;20480;-44
2021/09/19 04:40:39;;;;;;;31.83;20.92;;;;;;;;;;5012363;28;20045;-43
2021/09/19 04:43:11;;;;;;;27.92;20.92;;;;;;;;;;5011588;28;20046;-43
2021/09/19 04:45:49;;;;;;;28.75;21.17;;;;;;;;;;5067786;28;20407;-43
2021/09/19 04:48:16;;;;;;;30.25;21.83;;;;;;;;;;5031212;28;20046;-43
2021/09/19 04:50:42;;;;;;;27.25;20.52;;;;;;;;;;5047679;28;20450;-43
2021/09/19 04:53:09;;;;;;;28.05;20.98;;;;;;;;;;5047037;28;20042;-42
2021/09/19 04:55:36;;;;;;;35.05;23.95;;;;;;;;;;5045618;28;20541;-43
2021/09/19 04:58:03;;;;;;;32.05;23.15;;;;;;;;;;5027762;28;20120;-46
2021/09/19 05:00:30;;;;;;;28.63;22.00;;;;;;;;;;5034513;28;20065;-43
2021/09/19 05:02:57;;;;;;;35.35;23.20;;;;;;;;;;5047500;28;20041;-42
2021/09/19 05:05:24;;;;;;;35.22;23.65;;;;;;;;;;5046236;28;20171;-42
2021/09/19 05:07:51;;;;;;;30.63;22.60;;;;;;;;;;5036749;28;20069;-43
2021/09/19 05:10:17;;;;;;;31.38;23.55;;;;;;;;;;5040821;28;20425;-42
2021/09/19 05:12:44;;;;;;;32.95;23.77;;;;;;;;;;5047513;28;20052;-42
2021/09/19 05:15:11;;;;;;;32.03;23.65;;;;;;;;;;5046221;28;20076;-45
2021/09/19 05:17:38;;;;;;;34.65;23.30;;;;;;;;;;5033123;28;20089;-43
2021/09/19 05:20:05;;;;;;;29.67;21.95;;;;;;;;;;5047247;28;20037;-44
2021/09/19 05:22:32;;;;;;;27.63;21.25;;;;;;;;;;5047555;28;20128;-44
2021/09/19 05:24:59;;;;;;;31.38;22.23;;;;;;;;;;5045148;28;20609;-47
2021/09/19 05:27:26;;;;;;;30.33;22.65;;;;;;;;;;5027682;28;20042;-46
2021/09/19 05:29:52;;;;;;;28.70;21.65;;;;;;;;;;5040089;28;20151;-43
2021/09/19 05:32:19;;;;;;;32.67;20.88;;;;;;;;;;5046678;28;20045;-46
2021/09/19 05:34:46;;;;;;;30.65;21.60;;;;;;;;;;5046736;28;20072;-43
2021/09/19 05:37:13;;;;;;;29.55;21.25;;;;;;;;;;5045607;28;20049;-45
2021/09/19 05:39:39;;;;;;;29.83;22.25;;;;;;;;;;5031479;28;20049;-46
2021/09/19 05:42:06;;;;;;;36.92;23.08;;;;;;;;;;5046735;28;20079;-44
2021/09/19 05:44:33;;;;;;;34.17;23.05;;;;;;;;;;5045405;28;20140;-50
2021/09/19 05:47:00;;;;;;;30.55;23.23;;;;;;;;;;5044857;28;20124;-48
2021/09/19 05:49:27;;;;;;;29.52;21.38;;;;;;;;;;5046027;28;20033;-48
2021/09/19 05:51:53;;;;;;;31.40;22.10;;;;;;;;;;5046223;28;20044;-47
2021/09/19 05:54:20;;;;;;;26.05;19.95;;;;;;;;;;5045543;28;20045;-44
2021/09/19 05:56:48;;;;;;;31.25;21.10;;;;;;;;;;5023211;28;20057;-45
2021/09/19 05:59:15;;;;;;;31.45;22.55;;;;;;;;;;5019064;28;20132;-45
2021/09/19 06:01:41;;;;;;;28.52;20.08;;;;;;;;;;5033392;28;20136;-43
2021/09/19 06:04:08;;;;;;;25.27;19.63;;;;;;;;;;5032630;28;20518;-44
2021/09/19 06:06:35;;;;;;;23.00;18.10;;;;;;;;;;5030057;28;20029;-44
2021/09/19 06:09:02;;;;;;;22.50;17.67;;;;;;;;;;5027093;28;20042;-44
2021/09/19 06:11:29;;;;;;;29.73;20.25;;;;;;;;;;5033175;28;20125;-44
2021/09/19 06:13:56;;;;;;;26.60;19.63;;;;;;;;;;5032200;28;20038;-42
2021/09/19 06:16:22;;;;;;;28.55;21.20;;;;;;;;;;5028905;28;20060;-42
2021/09/19 06:18:49;;;;;;;23.52;18.98;;;;;;;;;;5031619;28;20068;-45
2021/09/19 06:21:16;;;;;;;28.05;20.42;;;;;;;;;;5031226;28;20042;-41
2021/09/19 06:23:43;;;;;;;24.23;19.60;;;;;;;;;;5032571;28;20100;-41
2021/09/19 06:26:10;;;;;;;26.35;20.58;;;;;;;;;;5025049;28;20133;-45
2021/09/19 06:28:36;;;;;;;24.85;19.42;;;;;;;;;;5025487;28;20034;-43
2021/09/19 06:31:03;;;;;;;24.52;18.73;;;;;;;;;;5024288;28;20046;-41
2021/09/19 06:33:30;;;;;;;21.63;16.77;;;;;;;;;;5023369;28;20034;-44
2021/09/19 06:35:57;;;;;;;18.90;15.07;;;;;;;;;;5027349;28;20057;-44
2021/09/19 06:38:24;;;;;;;19.15;15.73;;;;;;;;;;5030136;28;20041;-43
2021/09/19 06:40:51;;;;;;;18.77;15.77;;;;;;;;;;5013946;28;20448;-43
2021/09/19 06:43:17;;;;;;;18.67;14.57;;;;;;;;;;5027869;28;20103;-45
2021/09/19 06:45:44;;;;;;;21.05;15.88;;;;;;;;;;5015275;28;20042;-43
2021/09/19 06:48:11;;;;;;;19.27;15.82;;;;;;;;;;5017750;28;20048;-44
2021/09/19 06:50:38;;;;;;;21.50;16.42;;;;;;;;;;5030470;28;20483;-44
2021/09/19 06:53:05;;;;;;;21.40;16.45;;;;;;;;;;5026274;28;20125;-44
2021/09/19 06:55:32;;;;;;;19.10;15.48;;;;;;;;;;5031396;28;20052;-45
2021/09/19 06:57:59;;;;;;;17.20;14.35;;;;;;;;;;5030418;28;20057;-44
2021/09/19 07:00:26;;;;;;;18.65;14.73;;;;;;;;;;5012618;28;20041;-45
2021/09/19 07:02:53;;;;;;;19.05;15.32;;;;;;;;;;5028191;28;20100;-44
2021/09/19 07:05:20;;;;;;;18.55;14.75;;;;;;;;;;5017833;28;20050;-44
2021/09/19 07:07:47;;;;;;;16.67;13.63;;;;;;;;;;5025122;28;20053;-44
2021/09/19 07:10:15;;;;;;;19.77;14.35;;;;;;;;;;5019767;28;20073;-44
2021/09/19 07:12:42;;;;;;;17.38;14.27;;;;;;;;;;5028283;28;20077;-44
2021/09/19 07:15:09;;;;;;;18.98;15.25;;;;;;;;;;5019819;28;20104;-41
2021/09/19 07:17:36;;;;;;;20.20;16.38;;;;;;;;;;5017585;28;20038;-42
2021/09/19 07:20:03;;;;;;;21.05;16.77;;;;;;;;;;5032115;28;20077;-42
2021/09/19 07:22:30;;;;;;;20.25;16.38;;;;;;;;;;5029986;28;20103;-45
2021/09/19 07:24:57;;;;;;;19.52;15.85;;;;;;;;;;5039510;22;20060;-45
2021/09/19 07:27:24;;;;;;;21.92;16.42;;;;;;;;;;5032046;28;20691;-47
2021/09/19 07:29:50;;;;;;;21.40;16.77;;;;;;;;;;5030469;28;20041;-50
2021/09/19 07:32:17;;;;;;;19.35;15.85;;;;;;;;;;5024409;28;20530;-46
2021/09/19 07:34:44;;;;;;;21.63;17.35;;;;;;;;;;5049583;28;20045;-50
2021/09/19 07:37:11;;;;;;;21.40;17.08;;;;;;;;;;5031439;28;20069;-48
2021/09/19 07:39:38;;;;;;;22.27;17.15;;;;;;;;;;5017813;28;20073;-48
2021/09/19 07:42:05;;;;;;;23.10;18.17;;;;;;;;;;5021589;28;20053;-48
2021/09/19 07:44:34;;;;;;;23.75;17.83;;;;;;;;;;5032576;28;20124;-49
2021/09/19 07:47:02;;;;;;;24.10;19.42;;;;;;;;;;5032825;28;20060;-47
2021/09/19 07:49:29;;;;;;;23.13;18.17;;;;;;;;;;5028296;28;20120;-50
2021/09/19 07:51:56;;;;;;;24.00;18.60;;;;;;;;;;5027337;28;20045;-51
2021/09/19 07:54:23;;;;;;;22.20;17.80;;;;;;;;;;5032207;28;20092;-47
2021/09/19 07:56:50;;;;;;;22.67;17.95;;;;;;;;;;5029108;28;20077;-49
2021/09/19 07:59:17;;;;;;;23.30;17.73;;;;;;;;;;5031429;28;20071;-48
2021/09/19 08:01:44;;;;;;;25.05;19.35;;;;;;;;;;5031941;28;20045;-45
2021/09/19 08:04:11;;;;;;;24.60;18.65;;;;;;;;;;5027484;28;20042;-52
2021/09/19 08:06:38;;;;;;;22.60;18.02;;;;;;;;;;5027211;28;20061;-47
2021/09/19 08:09:05;;;;;;;23.58;18.42;;;;;;;;;;5029564;28;20034;-48
2021/09/19 08:11:32;;;;;;;22.45;18.73;;;;;;;;;;5028020;28;20068;-48
2021/09/19 08:14:08;;;;;;;23.70;19.23;;;;;;;;;;5025559;28;20486;-50
2021/09/19 08:16:36;;;;;;;24.38;18.52;;;;;;;;;;5029494;28;20069;-46
2021/09/19 08:19:04;;;;;;;20.77;17.48;;;;;;;;;;5030143;28;20049;-47
2021/09/19 08:21:31;;;;;;;23.40;19.30;;;;;;;;;;5030189;28;20033;-44
2021/09/19 08:23:58;;;;;;;23.35;18.80;;;;;;;;;;5028032;28;20527;-49
2021/09/19 08:26:25;;;;;;;25.63;19.50;;;;;;;;;;5030462;28;20083;-46
2021/09/19 08:28:52;;;;;;;24.02;19.90;;;;;;;;;;5026918;28;20045;-45
2021/09/19 08:31:18;;;;;;;24.55;20.90;;;;;;;;;;5031954;28;20037;-48
2021/09/19 08:33:46;;;;;;;25.63;20.15;;;;;;;;;;5031617;28;20041;-45
2021/09/19 08:36:13;;;;;;;26.00;19.95;;;;;;;;;;5028053;28;20057;-47
2021/09/19 08:38:40;;;;;;;26.40;20.48;;;;;;;;;;5026519;28;20180;-44
2021/09/19 08:41:07;;;;;;;25.02;19.75;;;;;;;;;;5021162;28;20084;-46
2021/09/19 08:43:33;;;;;;;27.30;20.48;;;;;;;;;;5030561;28;20469;-48
2021/09/19 08:46:01;;;;;;;24.25;20.25;;;;;;;;;;5037036;28;20079;-45
2021/09/19 08:48:31;;;;;;;27.50;21.38;;;;;;;;;;5037247;28;20041;-47
2021/09/19 08:50:58;;;;;;;26.67;20.92;;;;;;;;;;5025062;28;20111;-48
2021/09/19 08:53:27;;;;;;;28.20;22.10;;;;;;;;;;5021346;28;20124;-46
2021/09/19 08:55:54;;;;;;;26.40;20.75;;;;;;;;;;5030935;28;20136;-46
2021/09/19 08:58:21;;;;;;;28.33;21.65;;;;;;;;;;5038941;28;20049;-43
2021/09/19 09:00:48;;;;;;;26.60;21.55;;;;;;;;;;5029712;28;20073;-48
2021/09/19 09:03:17;;;;;;;28.20;22.00;;;;;;;;;;5029482;28;20045;-47
2021/09/19 09:05:52;;;;;;;31.67;22.48;;;;;;;;;;5028069;28;20045;-44
2021/09/19 09:08:19;;;;;;;28.90;22.50;;;;;;;;;;5022777;28;20048;-44
2021/09/19 09:10:48;;;;;;;30.52;22.33;;;;;;;;;;5032765;28;20168;-48
2021/09/19 09:13:20;;;;;;;31.67;23.98;;;;;;;;;;5029514;28;20038;-45
2021/09/19 09:15:52;;;;;;;28.65;22.20;;;;;;;;;;5025923;28;20049;-44
2021/09/19 09:18:28;;;;;;;30.27;22.02;;;;;;;;;;5029981;28;20459;-47
2021/09/19 09:21:10;;;;;;;29.02;22.90;;;;;;;;;;5029511;28;20045;-47
2021/09/19 09:23:47;;;;;;;28.20;21.30;;;;;;;;;;5021366;28;20069;-47
2021/09/19 09:26:18;;;;;;;30.02;21.00;;;;;;;;;;5025217;28;20526;-45
2021/09/19 09:28:45;;;;;;;32.17;23.25;;;;;;;;;;5031532;28;20623;-44
2021/09/19 09:31:17;;;;;;;28.25;20.77;;;;;;;;;;5032177;28;20041;-44
2021/09/19 09:33:55;;;;;;;28.67;21.52;;;;;;;;;;5034752;28;20506;-45
2021/09/19 09:36:29;;;;;;;30.05;23.00;;;;;;;;;;5031229;28;20037;-44
2021/09/19 09:38:57;;;;;;;29.98;22.65;;;;;;;;;;5028319;28;20052;-43
2021/09/19 09:41:38;;;;;;;27.00;21.38;;;;;;;;;;5038126;28;20048;-45
2021/09/19 09:44:24;;;;;;;25.83;21.33;;;;;;;;;;5027016;28;20077;-50
2021/09/19 09:46:52;;;;;;;26.35;20.50;;;;;;;;;;5024136;28;20045;-45
2021/09/19 09:49:23;;;;;;;26.73;20.17;;;;;;;;;;5030980;28;20049;-47
2021/09/19 09:51:50;;;;;;;26.65;20.20;;;;;;;;;;5031533;28;20038;-47
2021/09/19 09:54:17;;;;;;;22.55;18.42;;;;;;;;;;5030509;28;20140;-49
2021/09/19 09:56:46;;;;;;;23.63;19.20;;;;;;;;;;5025169;28;20037;-49
2021/09/19 09:59:14;;;;;;;22.15;18.02;;;;;;;;;;5029322;28;20419;-48
2021/09/19 10:01:41;;;;;;;22.33;18.02;;;;;;;;;;5032893;28;20490;-49
2021/09/19 10:04:10;;;;;;;19.70;16.92;;;;;;;;;;5033576;28;20055;-48
2021/09/19 10:06:37;;;;;;;18.85;16.52;;;;;;;;;;5033684;28;20050;-51
2021/09/19 10:09:04;;;;;;;18.23;16.00;;;;;;;;;;5032977;28;20561;-48
2021/09/19 10:11:30;;;;;;;19.50;16.23;;;;;;;;;;5034215;28;20133;-47
2021/09/19 10:13:57;;;;;;;18.08;14.43;;;;;;;;;;5029904;28;20133;-47
2021/09/19 10:16:25;;;;;;;18.55;14.65;;;;;;;;;;5034142;28;20073;-45
2021/09/19 10:18:52;;;;;;;16.80;12.82;;;;;;;;;;5022760;28;20131;-47
2021/09/19 10:21:21;;;;;;;15.50;12.80;;;;;;;;;;5033417;28;20125;-48
2021/09/19 10:23:49;;;;;;;14.75;12.40;;;;;;;;;;5033142;28;20132;-47
2021/09/19 10:26:20;;;;;;;14.35;12.18;;;;;;;;;;5025116;28;20076;-51
2021/09/19 10:28:53;;;;;;;18.92;13.30;;;;;;;;;;5044584;28;20129;-46
2021/09/19 10:31:28;;;;;;;14.82;11.73;;;;;;;;;;5051745;28;20043;-48
2021/09/19 10:33:58;;;;;;;12.95;11.60;;;;;;;;;;5056985;28;20064;-44
2021/09/19 10:36:28;;;;;;;14.63;11.80;;;;;;;;;;5049981;28;20045;-48
2021/09/19 10:39:12;;;;;;;14.77;11.15;;;;;;;;;;5024229;28;20132;-47
2021/09/19 10:41:58;;;;;;;12.70;10.35;;;;;;;;;;5043915;28;20458;-49
2021/09/19 10:44:37;;;;;;;13.10;11.05;;;;;;;;;;5056910;28;20407;-49
2021/09/19 10:47:05;;;;;;;14.73;10.95;;;;;;;;;;5022495;28;20045;-46
2021/09/19 10:49:33;;;;;;;12.90;10.63;;;;;;;;;;5034120;28;20048;-45
2021/09/19 10:51:59;;;;;;;11.88;10.27;;;;;;;;;;5056352;28;20443;-46
2021/09/19 10:54:50;;;;;;;11.27;9.90;;;;;;;;;;5045392;28;20129;-46
2021/09/19 10:57:21;;;;;;;12.13;10.82;;;;;;;;;;5030308;28;20068;-46
2021/09/19 11:00:06;;;;;;;11.35;10.10;;;;;;;;;;5040098;28;20065;-51
2021/09/19 11:02:35;;;;;;;11.25;10.05;;;;;;;;;;5053976;28;20045;-45
2021/09/19 11:05:21;;;;;;;11.85;10.13;;;;;;;;;;5053508;28;20182;-45
2021/09/19 11:07:49;;;;;;;12.98;11.00;;;;;;;;;;5044215;28;20037;-43
2021/09/19 11:10:16;;;;;;;12.77;9.63;;;;;;;;;;5027810;28;20053;-46
2021/09/19 11:12:44;;;;;;;9.63;8.63;;;;;;;;;;5030551;28;20049;-50
2021/09/19 11:15:14;;;;;;;9.95;8.95;;;;;;;;;;5033252;28;20046;-47
2021/09/19 11:17:43;;;;;;;10.27;8.43;;;;;;;;;;5031311;28;20080;-46
2021/09/19 11:20:10;;;;;;;9.80;8.20;;;;;;;;;;5033176;28;20059;-45
2021/09/19 11:22:37;;;;;;;8.27;7.15;;;;;;;;;;5031834;28;20100;-48
2021/09/19 11:25:06;;;;;;;8.90;7.43;;;;;;;;;;5031929;28;20041;-44
2021/09/19 11:27:39;;;;;;;7.93;7.13;;;;;;;;;;5015654;28;20038;-45
2021/09/19 11:30:07;;;;;;;7.95;6.18;;;;;;;;;;5020139;28;20087;-47
2021/09/19 11:32:38;;;;;;;6.30;5.57;;;;;;;;;;5033044;28;20124;-46
2021/09/19 11:35:08;;;;;;;6.22;5.57;;;;;;;;;;5032707;28;20472;-48
2021/09/19 11:37:35;;;;;;;7.40;5.93;;;;;;;;;;5026777;28;20157;-49
2021/09/19 11:40:07;;;;;;;8.15;6.22;;;;;;;;;;5013144;28;20446;-46
2021/09/19 11:42:34;;;;;;;7.13;5.97;;;;;;;;;;5013155;28;20422;-45
2021/09/19 11:45:06;;;;;;;8.30;5.90;;;;;;;;;;5029326;28;20077;-48
2021/09/19 11:47:33;;;;;;;7.77;6.20;;;;;;;;;;5014340;28;20045;-49
2021/09/19 11:50:06;;;;;;;7.45;6.43;;;;;;;;;;5012970;28;20761;-51
2021/09/19 11:52:34;;;;;;;8.70;6.85;;;;;;;;;;4983021;28;20542;-51
2021/09/19 11:55:01;;;;;;;6.15;5.55;;;;;;;;;;5017902;28;20537;-50
2021/09/19 11:57:28;;;;;;;8.90;6.57;;;;;;;;;;5022262;28;20045;-48
2021/09/19 12:00:01;;;;;;;6.65;5.82;;;;;;;;;;5026678;28;20050;-50
2021/09/19 12:02:39;;;;;;;6.82;5.97;;;;;;;;;;5031019;28;20041;-47
2021/09/19 12:05:07;;;;;;;7.63;5.75;;;;;;;;;;5032131;28;20076;-47
2021/09/19 12:07:34;;;;;;;7.28;6.47;;;;;;;;;;5030988;28;20124;-49
2021/09/19 12:10:04;;;;;;;7.40;6.60;;;;;;;;;;5012818;28;20090;-48
2021/09/19 12:12:31;;;;;;;8.65;6.35;;;;;;;;;;5030246;28;20049;-50
2021/09/19 12:14:57;;;;;;;7.43;5.90;;;;;;;;;;5012347;28;20185;-49
2021/09/19 12:17:28;;;;;;;9.93;7.40;;;;;;;;;;5022199;28;20046;-46
2021/09/19 12:19:56;;;;;;;8.65;6.82;;;;;;;;;;5026756;28;20081;-46
2021/09/19 12:22:23;;;;;;;10.07;7.15;;;;;;;;;;5030274;28;20554;-46
2021/09/19 12:24:51;;;;;;;10.05;7.18;;;;;;;;;;5024925;28;20073;-46
2021/09/19 12:27:22;;;;;;;8.23;7.28;;;;;;;;;;5027945;28;20069;-50
2021/09/19 12:29:57;;;;;;;6.90;6.20;;;;;;;;;;5029059;28;20112;-47
2021/09/19 12:32:31;;;;;;;7.93;6.78;;;;;;;;;;5027380;28;20034;-47
2021/09/19 12:35:02;;;;;;;7.25;6.47;;;;;;;;;;5030360;28;20148;-52
2021/09/19 12:37:33;;;;;;;6.60;5.72;;;;;;;;;;5030844;28;20387;-49
2021/09/19 12:40:05;;;;;;;5.72;5.13;;;;;;;;;;5026752;28;20132;-47
2021/09/19 12:42:32;;;;;;;7.07;5.07;;;;;;;;;;5025818;28;20073;-50
2021/09/19 12:44:58;;;;;;;5.88;4.78;;;;;;;;;;5024379;28;20494;-50
2021/09/19 12:47:31;;;;;;;6.53;5.05;;;;;;;;;;5019220;28;20038;-51
2021/09/19 12:49:58;;;;;;;5.28;4.50;;;;;;;;;;5028016;28;20037;-47
2021/09/19 12:52:32;;;;;;;7.38;4.93;;;;;;;;;;5028742;28;20148;-51
2021/09/19 12:55:00;;;;;;;6.05;4.05;;;;;;;;;;5030213;28;22059;-52
2021/09/19 12:57:29;;;;;;;6.82;4.95;;;;;;;;;;5029761;28;20099;-52
2021/09/19 12:59:56;;;;;;;5.32;4.45;;;;;;;;;;5024594;28;20055;-50
2021/09/19 13:02:23;;;;;;;4.90;4.38;;;;;;;;;;5029642;28;20068;-46
2021/09/19 13:04:51;;;;;;;6.00;4.53;;;;;;;;;;5028537;28;20053;-50
2021/09/19 13:07:18;;;;;;;6.55;4.50;;;;;;;;;;5033276;28;20401;-49
2021/09/19 13:09:45;;;;;;;5.75;4.38;;;;;;;;;;5019292;28;20565;-49
2021/09/19 13:12:12;;;;;;;4.85;3.88;;;;;;;;;;5015923;28;20046;-49
2021/09/19 13:14:39;;;;;;;5.05;3.88;;;;;;;;;;5015376;28;20093;-45
2021/09/19 13:17:06;;;;;;;5.07;3.50;;;;;;;;;;5020341;28;20042;-44
2021/09/19 13:19:33;;;;;;;5.55;4.95;;;;;;;;;;5033859;28;20065;-47
2021/09/19 13:22:00;;;;;;;4.40;3.50;;;;;;;;;;5035216;28;20103;-45
2021/09/19 13:24:28;;;;;;;4.88;3.78;;;;;;;;;;5037545;22;20050;-48
2021/09/19 13:26:55;;;;;;;4.70;3.60;;;;;;;;;;4995533;28;20070;-48
2021/09/19 13:29:23;;;;;;;4.53;3.58;;;;;;;;;;4995353;28;20093;-51
2021/09/19 13:31:50;;;;;;;4.55;3.50;;;;;;;;;;4995662;28;20125;-47
2021/09/19 13:34:17;;;;;;;5.68;3.40;;;;;;;;;;4994708;28;20096;-47
2021/09/19 13:36:44;;;;;;;4.40;3.42;;;;;;;;;;4995225;28;20056;-47
2021/09/19 13:39:12;;;;;;;4.47;3.40;;;;;;;;;;5012574;28;20077;-48
2021/09/19 13:41:39;;;;;;;8.93;6.40;;;;;;;;;;5014536;28;20073;-47
2021/09/19 13:44:06;;;;;;;5.25;4.10;;;;;;;;;;5014077;28;20054;-48
2021/09/19 13:46:33;;;;;;;4.47;3.47;;;;;;;;;;5014831;28;20514;-47
2021/09/19 13:49:06;;;;;;;5.07;3.83;;;;;;;;;;5013965;28;20484;-48
2021/09/19 13:51:34;;;;;;;5.65;3.80;;;;;;;;;;5014898;28;20049;-48
2021/09/19 13:54:03;;;;;;;3.63;3.22;;;;;;;;;;5012589;28;20045;-47
2021/09/19 13:56:31;;;;;;;5.50;3.58;;;;;;;;;;5011773;28;20042;-47
2021/09/19 13:58:57;;;;;;;4.20;3.05;;;;;;;;;;4994495;28;20046;-47
2021/09/19 14:01:24;;;;;;;5.85;3.28;;;;;;;;;;4994652;28;20046;-47
2021/09/19 14:03:53;;;;;;;4.32;2.90;;;;;;;;;;4994150;28;20125;-46
2021/09/19 14:06:20;;;;;;;3.78;2.95;;;;;;;;;;4994801;28;20043;-46
2021/09/19 14:08:46;;;;;;;4.00;3.13;;;;;;;;;;4994794;28;20070;-46
2021/09/19 14:11:13;;;;;;;4.60;3.55;;;;;;;;;;4994885;28;20045;-43
2021/09/19 14:13:40;;;;;;;5.72;3.70;;;;;;;;;;4994270;28;20133;-48
2021/09/19 14:16:07;;;;;;;4.28;3.13;;;;;;;;;;4993898;28;20039;-46
2021/09/19 14:18:34;;;;;;;4.07;3.38;;;;;;;;;;4994646;28;20047;-47
2021/09/19 14:21:20;;;;;;;4.93;3.25;;;;;;;;;;4994317;28;20039;-48
2021/09/19 14:23:47;;;;;;;4.38;3.25;;;;;;;;;;4993399;28;20049;-49
2021/09/19 14:26:14;;;;;;;3.58;2.90;;;;;;;;;;5004160;28;20042;-47
2021/09/19 14:28:40;;;;;;;4.82;2.88;;;;;;;;;;5008352;28;20045;-45